Time;durP1;ratioP1;P1;durP2;ratioP2;P2;SDS_P1;SDS_P2;PMS_P1;PMS_P2;Temp;Humidity;BMP_temperature;BMP_pressure;BME280_temperature;BME280_humidity;BME280_pressure;Samples;Min_cycle;Max_cycle;Signal;HPM_P1;HPM_P2
2023/06/08 00:01:52;;;;;;;18.80;9.48;;;11.70;99.90;;;;;;5061264;28;20147;-68
2023/06/08 00:04:17;;;;;;;15.85;9.75;;;11.60;99.90;;;;;;5058031;28;20076;-64
2023/06/08 00:06:43;;;;;;;17.33;10.15;;;11.70;99.90;;;;;;5057708;28;20525;-65
2023/06/08 00:09:09;;;;;;;13.07;9.18;;;11.70;99.90;;;;;;5061631;28;20048;-66
2023/06/08 00:11:35;;;;;;;15.05;9.82;;;11.70;99.90;;;;;;5059319;28;20120;-66
2023/06/08 00:14:01;;;;;;;17.52;9.48;;;11.70;99.90;;;;;;5062400;28;20056;-66
2023/06/08 00:16:29;;;;;;;14.10;9.05;;;11.70;99.90;;;;;;5068403;28;20127;-68
2023/06/08 00:18:56;;;;;;;17.67;10.10;;;11.70;99.90;;;;;;5068775;28;20157;-65
2023/06/08 00:21:23;;;;;;;17.13;9.35;;;11.70;99.90;;;;;;5097038;28;20070;-65
2023/06/08 00:23:50;;;;;;;15.55;10.13;;;11.70;99.90;;;;;;5066809;28;20048;-65
2023/06/08 00:26:16;;;;;;;15.50;11.23;;;11.70;99.90;;;;;;5067633;28;20040;-67
2023/06/08 00:28:41;;;;;;;18.70;11.25;;;11.80;99.90;;;;;;5073615;28;20035;-65
2023/06/08 00:31:07;;;;;;;16.30;10.43;;;11.80;99.90;;;;;;5067798;28;20426;-67
2023/06/08 00:33:34;;;;;;;16.58;10.57;;;11.80;99.90;;;;;;5071184;28;20048;-65
2023/06/08 00:36:02;;;;;;;17.33;10.32;;;11.80;99.90;;;;;;5070177;28;20569;-66
2023/06/08 00:38:28;;;;;;;17.02;10.38;;;11.80;99.90;;;;;;5068077;28;20189;-65
2023/06/08 00:40:53;;;;;;;18.58;10.50;;;11.70;99.90;;;;;;5066665;28;20613;-65
2023/06/08 00:43:19;;;;;;;18.77;10.18;;;11.70;99.90;;;;;;5066683;28;20124;-68
2023/06/08 00:45:45;;;;;;;19.77;11.07;;;11.70;99.90;;;;;;5065341;28;20078;-67
2023/06/08 00:48:11;;;;;;;18.25;11.93;;;11.70;99.90;;;;;;5072081;28;20098;-67
2023/06/08 00:50:36;;;;;;;19.00;10.43;;;11.70;99.90;;;;;;5068987;28;20047;-67
2023/06/08 00:53:02;;;;;;;14.95;9.73;;;11.70;99.90;;;;;;5073308;28;20475;-65
2023/06/08 00:55:33;;;;;;;19.83;10.18;;;11.70;99.90;;;;;;5068383;28;20056;-68
2023/06/08 00:58:00;;;;;;;19.27;10.98;;;11.70;99.90;;;;;;5068659;28;20044;-66
2023/06/08 01:00:28;;;;;;;17.30;9.43;;;11.70;99.90;;;;;;5053518;28;20040;-67
2023/06/08 01:02:55;;;;;;;14.43;8.98;;;11.70;99.90;;;;;;5068994;28;20040;-65
2023/06/08 01:05:22;;;;;;;13.05;9.02;;;11.70;99.90;;;;;;5100848;28;20028;-64
2023/06/08 01:08:21;;;;;;;15.13;8.93;;;11.70;99.90;;;;;;5068024;28;20037;-67
2023/06/08 01:10:57;;;;;;;17.83;7.93;;;11.80;99.90;;;;;;5069804;28;20037;-65
2023/06/08 01:13:51;;;;;;;12.90;8.15;;;11.80;99.90;;;;;;5069053;28;20071;-67
2023/06/08 01:16:19;;;;;;;14.05;8.30;;;11.80;99.90;;;;;;5067461;28;20040;-66
2023/06/08 01:18:44;;;;;;;21.13;8.65;;;11.80;99.90;;;;;;5070160;28;20036;-64
2023/06/08 01:21:33;;;;;;;18.80;9.30;;;11.80;99.90;;;;;;5066981;28;20056;-66
2023/06/08 01:24:14;;;;;;;16.85;8.82;;;11.80;99.90;;;;;;5086785;28;20045;-69
2023/06/08 01:26:44;;;;;;;18.70;9.73;;;11.80;99.90;;;;;;5081483;28;20052;-66
2023/06/08 01:29:13;;;;;;;15.05;9.43;;;11.80;99.90;;;;;;5065818;28;20040;-67
2023/06/08 01:31:39;;;;;;;15.88;10.00;;;11.80;99.90;;;;;;5047125;28;20087;-67
2023/06/08 01:34:05;;;;;;;11.90;9.18;;;11.80;99.90;;;;;;5059830;28;20463;-66
2023/06/08 01:36:57;;;;;;;16.52;9.75;;;11.80;99.90;;;;;;5060424;28;20384;-67
2023/06/08 01:39:42;;;;;;;18.50;9.20;;;11.80;99.90;;;;;;5061349;28;20033;-65
2023/06/08 01:42:11;;;;;;;13.82;9.18;;;11.80;99.90;;;;;;5070241;28;20445;-65
2023/06/08 01:44:43;;;;;;;18.30;10.05;;;11.80;99.90;;;;;;5068872;28;20491;-65
2023/06/08 01:47:11;;;;;;;20.05;9.02;;;11.80;99.90;;;;;;5054549;28;20040;-66
2023/06/08 01:49:37;;;;;;;15.60;8.05;;;11.80;99.90;;;;;;5069050;28;20040;-66
2023/06/08 01:52:03;;;;;;;15.35;9.10;;;11.80;99.90;;;;;;5054413;28;20442;-65
2023/06/08 01:54:29;;;;;;;17.08;8.70;;;11.80;99.90;;;;;;5070552;28;20044;-67
2023/06/08 01:56:55;;;;;;;15.82;8.70;;;11.80;99.90;;;;;;5070994;28;20491;-65
2023/06/08 01:59:20;;;;;;;17.15;9.70;;;11.80;99.90;;;;;;5069777;28;20051;-65
2023/06/08 02:01:46;;;;;;;15.60;9.13;;;11.80;99.90;;;;;;5067247;28;20032;-67
2023/06/08 02:04:11;;;;;;;17.05;9.57;;;11.90;99.90;;;;;;5040304;28;20060;-66
2023/06/08 02:06:37;;;;;;;16.15;9.18;;;11.90;99.90;;;;;;5063511;28;20040;-67
2023/06/08 02:09:03;;;;;;;15.77;9.07;;;11.80;99.90;;;;;;5061526;28;20398;-67
2023/06/08 02:11:29;;;;;;;18.35;8.90;;;11.90;99.90;;;;;;5060536;28;20049;-67
2023/06/08 02:13:54;;;;;;;17.35;8.48;;;11.90;99.90;;;;;;5056467;28;20029;-66
2023/06/08 02:16:20;;;;;;;16.33;7.88;;;11.90;99.90;;;;;;5056062;28;20565;-65
2023/06/08 02:18:46;;;;;;;15.55;8.18;;;11.90;99.90;;;;;;5058228;28;20739;-64
2023/06/08 02:21:12;;;;;;;16.88;9.13;;;11.90;99.90;;;;;;5091066;28;20044;-66
2023/06/08 02:23:38;;;;;;;14.95;8.05;;;11.90;99.90;;;;;;5069870;28;20032;-67
2023/06/08 02:26:06;;;;;;;15.65;7.25;;;11.80;99.90;;;;;;5057503;28;20043;-64
2023/06/08 02:28:31;;;;;;;17.80;8.40;;;11.80;99.90;;;;;;5059471;28;20037;-68
2023/06/08 02:30:57;;;;;;;17.58;8.40;;;11.80;99.90;;;;;;5095287;28;20051;-66
2023/06/08 02:33:23;;;;;;;15.38;7.43;;;11.80;99.90;;;;;;5060999;28;20428;-67
2023/06/08 02:35:49;;;;;;;15.50;7.70;;;11.80;99.90;;;;;;5061303;28;20110;-67
2023/06/08 02:38:16;;;;;;;14.32;7.80;;;11.80;99.90;;;;;;5060742;28;20150;-65
2023/06/08 02:40:42;;;;;;;14.77;8.30;;;11.70;99.90;;;;;;5054550;28;20044;-67
2023/06/08 02:43:08;;;;;;;18.42;7.72;;;11.70;99.90;;;;;;5063924;28;20041;-67
2023/06/08 02:45:34;;;;;;;18.58;8.27;;;11.80;99.90;;;;;;5054927;28;20045;-67
2023/06/08 02:48:01;;;;;;;17.00;7.90;;;11.70;99.90;;;;;;5053842;28;20044;-64
2023/06/08 02:50:26;;;;;;;18.63;8.00;;;11.80;99.90;;;;;;5064926;28;20033;-66
2023/06/08 02:52:52;;;;;;;17.95;8.77;;;11.80;99.90;;;;;;5064912;28;20055;-66
2023/06/08 02:55:18;;;;;;;13.98;7.85;;;11.80;99.90;;;;;;5052972;28;20114;-66
2023/06/08 02:57:48;;;;;;;18.27;9.38;;;11.70;99.90;;;;;;5067057;28;20059;-66
2023/06/08 03:00:15;;;;;;;14.25;8.85;;;11.80;99.90;;;;;;5040773;28;20043;-66
2023/06/08 03:02:41;;;;;;;18.20;9.77;;;11.70;99.90;;;;;;5057899;28;20052;-66
2023/06/08 03:05:07;;;;;;;16.80;9.77;;;11.70;99.90;;;;;;5058469;28;20671;-66
2023/06/08 03:07:33;;;;;;;19.02;10.75;;;11.70;99.90;;;;;;5071880;28;20502;-67
2023/06/08 03:10:02;;;;;;;19.20;11.40;;;11.70;99.90;;;;;;5064713;28;20064;-64
2023/06/08 03:12:29;;;;;;;20.75;11.63;;;11.70;99.90;;;;;;5062159;28;20036;-68
2023/06/08 03:14:55;;;;;;;23.17;11.43;;;11.70;99.90;;;;;;5064233;28;20434;-67
2023/06/08 03:17:24;;;;;;;17.90;10.82;;;11.60;99.90;;;;;;5065322;28;20043;-65
2023/06/08 03:19:50;;;;;;;20.17;11.15;;;11.60;99.90;;;;;;5062457;28;20036;-65
2023/06/08 03:22:15;;;;;;;16.63;10.77;;;11.60;99.90;;;;;;5071251;28;20090;-65
2023/06/08 03:24:42;;;;;;;17.30;11.02;;;11.60;99.90;;;;;;5063389;28;20044;-66
2023/06/08 03:27:08;;;;;;;18.70;10.52;;;11.60;99.90;;;;;;5066891;28;20520;-65
2023/06/08 03:29:33;;;;;;;18.83;10.30;;;11.70;99.90;;;;;;5064573;28;20119;-66
2023/06/08 03:32:00;;;;;;;16.77;9.45;;;11.70;99.90;;;;;;5068875;28;20048;-64
2023/06/08 03:34:26;;;;;;;20.38;10.45;;;11.60;99.90;;;;;;5068921;28;20099;-67
2023/06/08 03:36:55;;;;;;;18.60;9.93;;;11.70;99.90;;;;;;5064826;28;20131;-66
2023/06/08 03:39:21;;;;;;;19.27;9.38;;;11.60;99.90;;;;;;5065294;28;20426;-68
2023/06/08 03:41:47;;;;;;;17.55;9.38;;;11.60;99.90;;;;;;5068842;28;20036;-67
2023/06/08 03:44:13;;;;;;;18.88;9.98;;;11.60;99.90;;;;;;5065561;28;20063;-65
2023/06/08 03:46:39;;;;;;;17.60;10.00;;;11.60;99.90;;;;;;5067371;28;20059;-68
2023/06/08 03:49:05;;;;;;;18.63;10.57;;;11.60;99.90;;;;;;5067378;28;20498;-65
2023/06/08 03:51:30;;;;;;;23.08;9.70;;;11.60;99.90;;;;;;5067034;28;20402;-65
2023/06/08 03:53:56;;;;;;;16.65;9.15;;;11.60;99.90;;;;;;5061237;28;20028;-65
2023/06/08 03:56:22;;;;;;;16.92;9.18;;;11.60;99.90;;;;;;5060049;28;20399;-65
2023/06/08 03:58:48;;;;;;;19.63;10.27;;;11.60;99.90;;;;;;5070031;28;20462;-65
2023/06/08 04:01:14;;;;;;;15.40;8.90;;;11.60;99.90;;;;;;5067859;28;20040;-66
2023/06/08 04:03:41;;;;;;;18.70;10.02;;;11.60;99.90;;;;;;5065294;28;20403;-65
2023/06/08 04:06:08;;;;;;;20.42;10.27;;;11.60;99.90;;;;;;5063202;28;20067;-67
2023/06/08 04:08:40;;;;;;;22.08;9.48;;;11.60;99.90;;;;;;5095746;28;20037;-65
2023/06/08 04:11:09;;;;;;;20.55;9.80;;;11.60;99.90;;;;;;5065007;28;20044;-65
2023/06/08 04:13:40;;;;;;;21.00;10.05;;;11.60;99.90;;;;;;5070130;28;20072;-66
2023/06/08 04:16:09;;;;;;;19.23;10.10;;;11.60;99.90;;;;;;5067715;28;20050;-67
2023/06/08 04:18:36;;;;;;;17.60;10.10;;;11.70;99.90;;;;;;5067342;28;20045;-66
2023/06/08 04:21:05;;;;;;;18.90;10.73;;;11.60;99.90;;;;;;5070402;28;20757;-67
2023/06/08 04:23:31;;;;;;;18.60;9.82;;;11.60;99.90;;;;;;5068126;28;20041;-68
2023/06/08 04:25:57;;;;;;;20.08;10.38;;;11.70;99.90;;;;;;5069031;28;20515;-67
2023/06/08 04:28:23;;;;;;;18.02;10.52;;;11.70;99.90;;;;;;5068591;28;20445;-65
2023/06/08 04:30:49;;;;;;;19.92;10.25;;;11.60;99.90;;;;;;5072809;28;20040;-67
2023/06/08 04:33:16;;;;;;;19.05;10.45;;;11.70;99.90;;;;;;5068232;28;20036;-66
2023/06/08 04:35:42;;;;;;;18.83;10.15;;;11.70;99.90;;;;;;5066922;28;20324;-67
2023/06/08 04:38:14;;;;;;;19.35;10.60;;;11.70;99.90;;;;;;5062640;28;20041;-65
2023/06/08 04:40:46;;;;;;;19.85;11.05;;;11.70;99.90;;;;;;5084888;28;20800;-68
2023/06/08 04:43:13;;;;;;;15.38;9.10;;;11.70;99.90;;;;;;5066624;28;20075;-66
2023/06/08 04:45:42;;;;;;;15.90;10.57;;;11.70;99.90;;;;;;5062204;28;20036;-65
2023/06/08 04:48:09;;;;;;;18.50;9.95;;;11.70;99.90;;;;;;5057643;28;20098;-68
2023/06/08 04:50:34;;;;;;;20.15;10.25;;;11.70;99.90;;;;;;5069292;28;20033;-65
2023/06/08 04:53:01;;;;;;;17.92;11.10;;;11.80;99.90;;;;;;5058763;28;20368;-65
2023/06/08 04:55:27;;;;;;;18.02;10.70;;;11.80;99.90;;;;;;5066172;28;20040;-64
2023/06/08 04:57:53;;;;;;;19.90;10.45;;;11.90;99.90;;;;;;5064516;28;20066;-67
2023/06/08 05:00:19;;;;;;;20.20;10.65;;;11.90;99.90;;;;;;5056824;28;20058;-67
2023/06/08 05:02:44;;;;;;;17.08;10.48;;;12.00;99.90;;;;;;5061064;28;20044;-66
2023/06/08 05:05:12;;;;;;;18.40;10.80;;;12.10;99.90;;;;;;5067236;28;20055;-67
2023/06/08 05:07:37;;;;;;;21.50;11.32;;;12.20;99.90;;;;;;5066729;28;20052;-67
2023/06/08 05:10:04;;;;;;;20.35;10.57;;;12.30;99.90;;;;;;5073518;28;20083;-67
2023/06/08 05:12:30;;;;;;;20.95;10.50;;;12.40;99.90;;;;;;5061385;28;20135;-66
2023/06/08 05:14:55;;;;;;;20.38;10.20;;;12.50;99.90;;;;;;5068318;28;20120;-68
2023/06/08 05:17:22;;;;;;;19.75;10.60;;;12.60;99.90;;;;;;5069942;28;20085;-66
2023/06/08 05:19:50;;;;;;;16.55;9.82;;;12.50;99.90;;;;;;5071029;28;20075;-67
2023/06/08 05:22:16;;;;;;;18.92;10.40;;;12.50;99.90;;;;;;5067692;28;20040;-68
2023/06/08 05:24:41;;;;;;;18.92;10.18;;;12.60;99.90;;;;;;5067898;28;20048;-65
2023/06/08 05:27:07;;;;;;;16.60;9.65;;;12.70;99.90;;;;;;5055009;28;20052;-66
2023/06/08 05:29:33;;;;;;;15.40;9.68;;;12.80;99.90;;;;;;5071102;28;20040;-66
2023/06/08 05:32:00;;;;;;;14.50;9.02;;;12.90;99.90;;;;;;5070357;28;20044;-65
2023/06/08 05:34:26;;;;;;;18.27;9.35;;;12.90;99.90;;;;;;5070944;28;20049;-65
2023/06/08 05:36:53;;;;;;;15.25;9.18;;;13.00;99.90;;;;;;5071668;28;20043;-65
2023/06/08 05:39:18;;;;;;;14.48;8.68;;;13.00;99.90;;;;;;5071378;28;20039;-66
2023/06/08 05:41:44;;;;;;;21.45;9.07;;;13.00;99.90;;;;;;5072206;28;20040;-66
2023/06/08 05:44:10;;;;;;;15.70;8.48;;;13.00;99.90;;;;;;5072795;28;20040;-65
2023/06/08 05:46:35;;;;;;;15.25;8.20;;;13.10;99.90;;;;;;5070115;28;20759;-66
2023/06/08 05:49:01;;;;;;;14.50;8.02;;;13.20;99.90;;;;;;5100088;28;20078;-65
2023/06/08 05:51:26;;;;;;;15.80;8.20;;;13.30;99.90;;;;;;5070615;28;20047;-66
2023/06/08 05:53:52;;;;;;;12.98;7.68;;;13.40;99.90;;;;;;5070259;28;20028;-64
2023/06/08 05:56:18;;;;;;;16.70;7.70;;;13.50;99.90;;;;;;5071606;28;20037;-66
2023/06/08 05:58:43;;;;;;;16.48;7.65;;;13.60;99.90;;;;;;5067998;28;20045;-65
2023/06/08 06:01:09;;;;;;;12.90;7.70;;;13.60;99.90;;;;;;5073096;28;20047;-66
2023/06/08 06:03:35;;;;;;;12.75;6.97;;;13.70;99.90;;;;;;5072304;28;20043;-66
2023/06/08 06:06:02;;;;;;;14.85;8.07;;;13.80;99.90;;;;;;5071296;28;20115;-68
2023/06/08 06:08:27;;;;;;;13.63;7.15;;;13.90;99.90;;;;;;5070936;28;20399;-66
2023/06/08 06:10:53;;;;;;;12.27;7.70;;;14.00;99.90;;;;;;5070911;28;20044;-65
2023/06/08 06:13:18;;;;;;;13.02;6.80;;;14.20;99.90;;;;;;5070829;28;20040;-68
2023/06/08 06:15:44;;;;;;;15.77;7.47;;;14.30;99.90;;;;;;5054180;28;20049;-67
2023/06/08 06:18:10;;;;;;;14.25;6.60;;;14.50;99.90;;;;;;5070962;28;20446;-66
2023/06/08 06:20:35;;;;;;;12.20;6.53;;;14.60;99.90;;;;;;5070610;28;20114;-66
2023/06/08 06:23:01;;;;;;;16.98;6.72;;;14.70;99.90;;;;;;5070878;28;20109;-66
2023/06/08 06:25:26;;;;;;;14.40;6.50;;;14.80;99.90;;;;;;5070564;28;20123;-65
2023/06/08 06:27:52;;;;;;;13.70;7.55;;;15.00;99.90;;;;;;5070765;28;20451;-66
2023/06/08 06:30:18;;;;;;;16.17;7.35;;;15.00;99.90;;;;;;5070674;28;20040;-65
2023/06/08 06:32:43;;;;;;;11.55;6.22;;;15.00;99.90;;;;;;5070175;28;20123;-67
2023/06/08 06:35:10;;;;;;;14.30;7.10;;;15.10;99.90;;;;;;5070541;28;20472;-66
2023/06/08 06:37:36;;;;;;;13.45;6.70;;;15.10;99.90;;;;;;5069645;28;20041;-66
2023/06/08 06:40:09;;;;;;;15.15;7.05;;;15.20;99.90;;;;;;5070786;28;20045;-65
2023/06/08 06:42:37;;;;;;;17.63;7.55;;;15.30;99.90;;;;;;5070303;28;20119;-65
2023/06/08 06:45:03;;;;;;;15.50;6.85;;;15.30;99.90;;;;;;5070186;28;20437;-66
2023/06/08 06:47:29;;;;;;;14.02;7.07;;;15.40;99.90;;;;;;5070121;28;20032;-66
2023/06/08 06:49:55;;;;;;;12.13;6.35;;;15.50;99.90;;;;;;5070343;28;20048;-65
2023/06/08 06:52:21;;;;;;;16.20;6.70;;;15.60;99.90;;;;;;5070201;28;20040;-65
2023/06/08 06:54:46;;;;;;;11.85;6.13;;;15.80;99.90;;;;;;5069678;28;20032;-67
2023/06/08 06:57:12;;;;;;;13.07;6.35;;;16.00;99.90;;;;;;5070117;28;20502;-66
2023/06/08 06:59:38;;;;;;;14.38;6.20;;;16.10;99.90;;;;;;5069455;28;20492;-66
2023/06/08 07:02:06;;;;;;;13.63;6.35;;;16.20;99.90;;;;;;5069867;28;20093;-66
2023/06/08 07:04:32;;;;;;;17.38;6.88;;;16.20;99.90;;;;;;5069784;28;20123;-65
2023/06/08 07:06:57;;;;;;;15.75;6.40;;;16.30;99.90;;;;;;5069847;28;20128;-67
2023/06/08 07:09:24;;;;;;;12.52;6.07;;;16.40;99.90;;;;;;5069488;28;20040;-65
2023/06/08 07:11:51;;;;;;;13.80;6.30;;;16.50;99.90;;;;;;5069388;28;20412;-64
2023/06/08 07:14:16;;;;;;;14.00;6.07;;;16.60;99.90;;;;;;5070047;28;20464;-65
2023/06/08 07:16:42;;;;;;;15.07;6.32;;;16.80;99.90;;;;;;5069430;28;20066;-67
2023/06/08 07:19:08;;;;;;;17.08;6.88;;;16.90;99.90;;;;;;5069583;28;20036;-65
2023/06/08 07:21:38;;;;;;;12.55;5.57;;;17.00;99.90;;;;;;5069549;28;20115;-66
2023/06/08 07:24:04;;;;;;;16.17;6.43;;;17.10;99.90;;;;;;5069434;28;20072;-66
2023/06/08 07:26:30;;;;;;;11.45;6.03;;;17.20;99.90;;;;;;5069715;28;20390;-67
2023/06/08 07:28:57;;;;;;;12.68;6.07;;;17.40;99.90;;;;;;5052906;28;20056;-67
2023/06/08 07:31:23;;;;;;;11.63;5.97;;;17.60;99.90;;;;;;5069536;28;20173;-66
2023/06/08 07:33:50;;;;;;;14.30;5.22;;;17.80;99.90;;;;;;5070507;28;20415;-67
2023/06/08 07:36:16;;;;;;;11.75;5.22;;;17.90;99.90;;;;;;5070749;28;20522;-66
2023/06/08 07:38:41;;;;;;;14.30;5.72;;;18.00;99.90;;;;;;5070516;28;20170;-67
2023/06/08 07:41:07;;;;;;;15.35;5.70;;;18.10;99.90;;;;;;5070440;28;20040;-67
2023/06/08 07:43:33;;;;;;;10.60;5.35;;;18.10;99.90;;;;;;5052851;28;20040;-68
2023/06/08 07:45:58;;;;;;;11.90;5.63;;;18.30;99.90;;;;;;5052672;28;20048;-65
2023/06/08 07:48:24;;;;;;;15.02;5.63;;;18.40;99.90;;;;;;5068536;28;20113;-65
2023/06/08 07:50:50;;;;;;;12.20;5.35;;;18.40;99.90;;;;;;5068892;28;20405;-66
2023/06/08 07:53:17;;;;;;;10.70;4.70;;;18.50;99.90;;;;;;5069449;28;20068;-64
2023/06/08 07:55:43;;;;;;;14.05;5.15;;;18.60;99.90;;;;;;5069405;28;20410;-65
2023/06/08 07:58:08;;;;;;;10.82;5.03;;;18.60;99.90;;;;;;5068759;28;21200;-67
2023/06/08 08:00:35;;;;;;;11.50;4.68;;;18.60;99.90;;;;;;5069384;28;20463;-67
2023/06/08 08:03:03;;;;;;;12.98;5.25;;;18.60;99.90;;;;;;5069002;28;20060;-66
2023/06/08 08:05:30;;;;;;;11.32;4.90;;;18.30;99.90;;;;;;5070563;28;20403;-66
2023/06/08 08:07:56;;;;;;;12.32;4.53;;;18.20;99.90;;;;;;5068803;28;20084;-67
2023/06/08 08:10:21;;;;;;;38.33;6.03;;;17.90;99.90;;;;;;5069050;28;20467;-66
2023/06/08 08:12:47;;;;;;;9.60;4.15;;;17.80;99.90;;;;;;5068946;28;20041;-66
2023/06/08 08:15:13;;;;;;;10.10;3.78;;;17.80;99.90;;;;;;5068724;28;20087;-66
2023/06/08 08:17:38;;;;;;;11.43;4.57;;;17.90;99.90;;;;;;5069190;28;20032;-66
2023/06/08 08:20:05;;;;;;;13.85;4.50;;;18.10;99.90;;;;;;5068626;28;20121;-64
2023/06/08 08:22:31;;;;;;;9.90;4.68;;;18.10;99.90;;;;;;5069069;28;20036;-68
2023/06/08 08:24:57;;;;;;;11.05;5.35;;;18.10;99.90;;;;;;5068630;28;20067;-65
2023/06/08 08:27:23;;;;;;;12.20;4.47;;;18.10;99.90;;;;;;5068888;28;20040;-65
2023/06/08 08:29:48;;;;;;;10.38;4.30;;;18.10;99.90;;;;;;5068843;28;20116;-65
2023/06/08 08:32:14;;;;;;;10.02;4.32;;;18.20;99.90;;;;;;5068909;28;20437;-67
2023/06/08 08:34:40;;;;;;;9.65;4.38;;;18.20;99.90;;;;;;5068924;28;20042;-65
2023/06/08 08:37:06;;;;;;;11.05;4.47;;;18.30;99.90;;;;;;5068471;28;20041;-66
2023/06/08 08:39:32;;;;;;;9.95;5.07;;;18.60;99.90;;;;;;5068887;28;20036;-65
2023/06/08 08:42:02;;;;;;;9.20;4.15;;;19.10;99.90;;;;;;5068724;28;20051;-66
2023/06/08 08:44:30;;;;;;;9.93;4.03;;;19.40;99.90;;;;;;5068746;28;20040;-65
2023/06/08 08:47:02;;;;;;;8.48;4.55;;;19.80;99.90;;;;;;5068614;28;20055;-68
2023/06/08 08:49:32;;;;;;;9.02;4.30;;;19.90;99.90;;;;;;5062295;28;20511;-66
2023/06/08 08:52:01;;;;;;;11.32;4.25;;;19.70;99.90;;;;;;5068520;28;20037;-66
2023/06/08 08:54:31;;;;;;;10.32;4.47;;;19.70;99.90;;;;;;5061678;28;20033;-66
2023/06/08 08:56:58;;;;;;;11.52;4.70;;;19.80;99.90;;;;;;5051839;28;20072;-65
2023/06/08 08:59:27;;;;;;;13.10;4.45;;;20.00;99.90;;;;;;5069590;28;20102;-68
2023/06/08 09:01:54;;;;;;;10.48;3.90;;;20.20;99.90;;;;;;5072250;28;20075;-66
2023/06/08 09:04:19;;;;;;;9.85;4.20;;;20.50;99.90;;;;;;5071985;28;20045;-66
2023/06/08 09:06:49;;;;;;;9.98;4.10;;;20.80;99.90;;;;;;5072193;28;20395;-65
2023/06/08 09:09:15;;;;;;;7.63;4.10;;;20.80;99.90;;;;;;5073197;28;20403;-64
2023/06/08 09:12:00;;;;;;;9.00;4.32;;;20.90;99.90;;;;;;5072032;28;20043;-65
2023/06/08 09:14:27;;;;;;;9.40;4.72;;;21.10;99.90;;;;;;5071581;28;20036;-67
2023/06/08 09:16:53;;;;;;;10.35;4.30;;;21.30;99.60;;;;;;5072014;28;20086;-67
2023/06/08 09:19:19;;;;;;;9.68;4.10;;;21.40;99.40;;;;;;5071701;28;20032;-68
2023/06/08 09:21:46;;;;;;;11.77;4.30;;;21.60;99.20;;;;;;5072317;28;20106;-68
2023/06/08 09:24:17;;;;;;;11.73;5.20;;;21.80;98.70;;;;;;5071647;28;20400;-68
2023/06/08 09:26:56;;;;;;;11.15;4.95;;;21.90;98.00;;;;;;5071877;28;20098;-66
2023/06/08 09:29:34;;;;;;;10.77;4.35;;;22.00;97.40;;;;;;5071775;28;20391;-67
2023/06/08 09:32:03;;;;;;;9.38;4.30;;;22.20;97.70;;;;;;5071745;28;20048;-64
2023/06/08 09:34:29;;;;;;;10.73;4.20;;;22.30;98.00;;;;;;5071484;28;20037;-65
2023/06/08 09:37:09;;;;;;;10.18;4.10;;;22.50;97.60;;;;;;5071701;28;20556;-66
2023/06/08 09:39:44;;;;;;;8.57;3.67;;;22.70;96.70;;;;;;5071455;28;20112;-67
2023/06/08 09:42:11;;;;;;;9.82;3.92;;;22.90;96.90;;;;;;5071504;28;20044;-68
2023/06/08 09:44:37;;;;;;;8.30;3.60;;;22.90;96.00;;;;;;5071673;28;20502;-68
2023/06/08 09:47:25;;;;;;;9.13;3.45;;;23.10;95.60;;;;;;5071419;28;20080;-67
2023/06/08 09:49:52;;;;;;;9.50;3.85;;;23.10;96.10;;;;;;5071575;28;20048;-66
2023/06/08 09:52:20;;;;;;;8.10;3.80;;;23.30;96.10;;;;;;5072307;28;20049;-67
2023/06/08 09:54:46;;;;;;;7.43;3.22;;;23.20;95.00;;;;;;5054682;28;20119;-66
2023/06/08 09:57:15;;;;;;;10.15;3.75;;;23.30;95.30;;;;;;5071293;28;20036;-64
2023/06/08 10:00:17;;;;;;;7.82;3.42;;;23.40;95.10;;;;;;5070863;28;20134;-64
2023/06/08 10:03:01;;;;;;;8.88;4.00;;;23.40;94.00;;;;;;5033562;28;20041;-68
2023/06/08 10:05:33;;;;;;;9.45;3.80;;;23.60;93.50;;;;;;5033343;28;20148;-66
2023/06/08 10:07:59;;;;;;;7.88;3.35;;;23.50;93.50;;;;;;5033265;28;20198;-66
2023/06/08 10:10:45;;;;;;;10.18;4.20;;;23.60;93.60;;;;;;5032493;28;20407;-67
2023/06/08 10:13:12;;;;;;;8.80;4.00;;;23.70;92.80;;;;;;5016646;28;20049;-66
2023/06/08 10:15:38;;;;;;;11.43;3.63;;;23.70;92.80;;;;;;5033098;28;20045;-68
2023/06/08 10:18:04;;;;;;;9.43;3.70;;;23.80;92.60;;;;;;5033480;28;20047;-65
2023/06/08 10:20:30;;;;;;;8.45;3.55;;;23.80;92.40;;;;;;5032761;28;20057;-65
2023/06/08 10:23:00;;;;;;;8.20;4.05;;;23.90;92.40;;;;;;5032889;28;20120;-65
2023/06/08 10:25:33;;;;;;;10.15;3.80;;;24.00;91.80;;;;;;5015735;28;20064;-65
2023/06/08 10:28:09;;;;;;;9.23;3.97;;;23.90;91.60;;;;;;5049782;28;20098;-68
2023/06/08 10:30:40;;;;;;;6.65;3.78;;;24.10;92.10;;;;;;5033006;28;20076;-68
2023/06/08 10:33:30;;;;;;;7.30;3.03;;;24.30;92.40;;;;;;5032924;28;20060;-66
2023/06/08 10:36:10;;;;;;;11.50;3.80;;;24.50;92.40;;;;;;5033002;28;20786;-66
2023/06/08 10:38:57;;;;;;;8.23;3.60;;;24.70;92.20;;;;;;5034761;28;20178;-66
2023/06/08 10:41:44;;;;;;;10.13;3.78;;;24.80;92.30;;;;;;5069876;28;20052;-65
2023/06/08 10:44:36;;;;;;;10.45;4.07;;;24.80;91.10;;;;;;5070681;28;20479;-66
2023/06/08 10:47:06;;;;;;;13.02;3.78;;;24.80;91.90;;;;;;5070448;28;20054;-67
2023/06/08 10:49:34;;;;;;;11.30;3.80;;;25.00;91.80;;;;;;5070102;28;20051;-68
2023/06/08 10:52:06;;;;;;;10.68;3.78;;;25.10;91.50;;;;;;5070199;28;20060;-67
2023/06/08 10:54:52;;;;;;;8.80;3.63;;;25.30;90.90;;;;;;5070084;28;20044;-66
2023/06/08 10:57:45;;;;;;;8.80;3.55;;;25.50;90.90;;;;;;5070120;28;20056;-67
2023/06/08 11:00:27;;;;;;;11.82;3.83;;;25.40;89.40;;;;;;5051678;28;20076;-67
2023/06/08 11:02:53;;;;;;;5.60;3.10;;;25.50;90.20;;;;;;5069816;28;20442;-67
2023/06/08 11:05:20;;;;;;;8.93;3.80;;;25.50;90.00;;;;;;5070015;28;20051;-65
2023/06/08 11:07:46;;;;;;;9.68;3.97;;;25.50;89.80;;;;;;5069683;28;20043;-64
2023/06/08 11:10:12;;;;;;;10.73;3.78;;;25.20;88.00;;;;;;5069986;28;20123;-66
2023/06/08 11:12:38;;;;;;;11.65;3.83;;;25.30;88.90;;;;;;5069671;28;20487;-68
2023/06/08 11:15:04;;;;;;;8.70;3.75;;;25.20;89.40;;;;;;5069725;28;20139;-64
2023/06/08 11:17:36;;;;;;;10.98;3.92;;;25.20;88.70;;;;;;5069619;28;20119;-68
2023/06/08 11:20:05;;;;;;;8.40;3.65;;;25.00;89.00;;;;;;5053196;28;20032;-67
2023/06/08 11:22:31;;;;;;;11.13;4.25;;;25.00;89.20;;;;;;5069788;28;20094;-66
2023/06/08 11:24:57;;;;;;;7.05;3.30;;;25.00;88.50;;;;;;5069685;28;20074;-68
2023/06/08 11:27:23;;;;;;;10.45;3.80;;;25.10;90.40;;;;;;5069600;28;20033;-64
2023/06/08 11:29:48;;;;;;;7.93;3.47;;;25.30;90.00;;;;;;5069489;28;20502;-67
2023/06/08 11:32:16;;;;;;;8.32;3.50;;;25.40;88.70;;;;;;5069661;28;20078;-67
2023/06/08 11:34:45;;;;;;;9.65;3.80;;;25.40;90.00;;;;;;5069323;28;20044;-67
2023/06/08 11:37:13;;;;;;;7.30;3.28;;;25.50;88.70;;;;;;5069602;28;20074;-64
2023/06/08 11:39:47;;;;;;;7.40;3.58;;;25.30;88.80;;;;;;5069352;28;20119;-67
2023/06/08 11:42:13;;;;;;;7.53;3.55;;;25.30;86.10;;;;;;5069999;28;20398;-66
2023/06/08 11:44:39;;;;;;;10.85;3.50;;;25.30;88.90;;;;;;5069509;28;20124;-66
2023/06/08 11:47:08;;;;;;;7.75;3.55;;;25.20;88.70;;;;;;5069091;28;20123;-67
2023/06/08 11:49:53;;;;;;;8.55;3.83;;;25.00;88.90;;;;;;5069271;28;20040;-65
2023/06/08 11:52:22;;;;;;;9.70;3.72;;;25.00;89.40;;;;;;5070529;28;20032;-65
2023/06/08 11:54:55;;;;;;;8.25;3.67;;;24.90;87.70;;;;;;5070524;28;20045;-67
2023/06/08 11:57:44;;;;;;;8.60;3.72;;;24.80;88.40;;;;;;5070524;28;20036;-67
2023/06/08 12:00:31;;;;;;;13.30;4.45;;;24.80;88.60;;;;;;5069966;28;20396;-67
2023/06/08 12:02:58;;;;;;;6.70;3.50;;;24.90;88.10;;;;;;5068800;28;20053;-64
2023/06/08 12:05:26;;;;;;;8.32;3.47;;;24.70;89.00;;;;;;5069002;28;20051;-66
2023/06/08 12:08:14;;;;;;;10.13;3.92;;;24.80;89.30;;;;;;5069118;28;20044;-64
2023/06/08 12:10:41;;;;;;;9.90;3.50;;;24.70;88.20;;;;;;5069137;28;20072;-65
2023/06/08 12:13:08;;;;;;;9.52;3.83;;;24.50;89.30;;;;;;5052046;28;20044;-68
2023/06/08 12:15:40;;;;;;;9.02;4.18;;;24.30;89.10;;;;;;5069041;28;20453;-67
2023/06/08 12:18:05;;;;;;;;;;;24.20;89.90;;;;;;5069416;28;20070;-65
2023/06/08 12:20:33;;;;;;;7.93;3.80;;;24.30;90.00;;;;;;5070495;28;19920;-67
2023/06/08 12:22:59;;;;;;;10.15;4.38;;;24.30;90.10;;;;;;5069006;28;20483;-66
2023/06/08 12:25:25;;;;;;;6.90;3.20;;;24.30;90.60;;;;;;5069007;28;20041;-66
2023/06/08 12:27:51;;;;;;;10.85;3.97;;;24.40;90.50;;;;;;5070143;28;20721;-66
2023/06/08 12:30:17;;;;;;;7.72;3.22;;;24.40;90.70;;;;;;5070043;28;20032;-64
2023/06/08 12:32:43;;;;;;;8.57;4.00;;;24.50;90.60;;;;;;5068693;28;20460;-65
2023/06/08 12:35:09;;;;;;;13.40;4.47;;;24.50;90.30;;;;;;5071426;28;21212;-66
2023/06/08 12:37:35;;;;;;;7.80;3.60;;;24.50;90.30;;;;;;5073153;28;20075;-66
2023/06/08 12:40:01;;;;;;;6.18;3.20;;;24.20;90.50;;;;;;5055981;28;20052;-65
2023/06/08 12:42:27;;;;;;;9.73;3.83;;;24.20;90.60;;;;;;5072734;28;20048;-65
2023/06/08 12:44:55;;;;;;;7.70;3.60;;;24.30;90.60;;;;;;5072495;28;20044;-67